createdAt,value
2017-08-19T00:01:40.320Z,2.45
2017-08-19T00:04:08.625Z,2.08
2017-08-19T00:06:36.889Z,1.65
2017-08-19T00:09:05.164Z,1.80
2017-08-19T00:11:33.441Z,3.03
2017-08-19T00:14:01.718Z,2.58
2017-08-19T00:16:30.028Z,2.33
2017-08-19T00:18:58.304Z,1.58
2017-08-19T00:21:26.579Z,1.73
2017-08-19T00:23:54.869Z,1.98
2017-08-19T00:26:23.135Z,2.00
2017-08-19T00:28:53.151Z,2.28
2017-08-19T00:31:21.403Z,2.47
2017-08-19T00:33:49.677Z,2.42
2017-08-19T00:36:18.728Z,2.90
2017-08-19T00:38:47.004Z,2.37
2017-08-19T00:41:15.324Z,2.53
2017-08-19T00:43:43.601Z,3.55
2017-08-19T00:46:12.787Z,4.20
2017-08-19T00:48:41.051Z,2.40
2017-08-19T00:51:09.315Z,2.50
2017-08-19T00:53:37.628Z,2.60
2017-08-19T00:56:05.891Z,3.00
2017-08-19T00:58:34.155Z,2.72
2017-08-19T01:01:02.451Z,3.33
2017-08-19T01:03:30.720Z,2.80
2017-08-19T01:05:59.039Z,5.97
2017-08-19T01:08:27.308Z,3.80
2017-08-19T01:10:55.580Z,4.70
2017-08-19T01:13:23.868Z,2.80
2017-08-19T01:15:52.131Z,3.37
2017-08-19T01:18:20.440Z,4.05
2017-08-19T01:20:49.473Z,3.00
2017-08-19T01:23:17.743Z,2.70
2017-08-19T01:25:57.915Z,2.75
2017-08-19T01:28:26.177Z,3.62
2017-08-19T01:30:54.472Z,4.90
2017-08-19T01:33:22.744Z,4.22
2017-08-19T01:35:51.040Z,3.53
2017-08-19T01:38:20.070Z,5.20
2017-08-19T01:40:48.344Z,4.00
2017-08-19T01:43:16.623Z,5.18
2017-08-19T01:45:44.895Z,2.62
2017-08-19T01:48:14.276Z,2.83
2017-08-19T01:50:42.539Z,3.60
2017-08-19T01:53:10.817Z,2.90
2017-08-19T01:55:39.872Z,3.65
2017-08-19T01:58:08.136Z,4.07
2017-08-19T02:00:36.440Z,3.72
2017-08-19T02:03:04.716Z,3.80
2017-08-19T02:05:32.992Z,5.20
2017-08-19T02:08:01.296Z,9.85
2017-08-19T02:10:29.563Z,7.70
2017-08-19T02:12:58.672Z,6.57
2017-08-19T02:15:26.952Z,31.65
2017-08-19T02:17:55.225Z,13.32
2017-08-19T02:20:23.525Z,6.60
2017-08-19T02:22:51.776Z,4.07
2017-08-19T02:25:20.080Z,4.30
2017-08-19T02:27:48.360Z,4.00
2017-08-19T02:30:16.636Z,4.60
2017-08-19T02:32:44.918Z,5.03
2017-08-19T02:35:13.179Z,5.47
2017-08-19T02:37:41.476Z,5.12
2017-08-19T02:40:09.743Z,4.90
2017-08-19T02:42:38.015Z,5.43
2017-08-19T02:45:06.292Z,8.20
2017-08-19T02:47:34.564Z,5.18
2017-08-19T02:50:02.856Z,5.28
2017-08-19T02:52:31.896Z,5.65
2017-08-19T02:55:00.159Z,5.97
2017-08-19T02:57:28.452Z,6.53
2017-08-19T02:59:56.716Z,5.90
2017-08-19T03:02:25.035Z,5.57
2017-08-19T03:04:53.312Z,6.00
2017-08-19T03:07:21.588Z,4.78
2017-08-19T03:09:50.214Z,5.70
2017-08-19T03:12:18.483Z,8.52
2017-08-19T03:14:46.796Z,4.80
2017-08-19T03:17:15.067Z,5.45
2017-08-19T03:19:44.095Z,5.12
2017-08-19T03:22:12.380Z,5.32
2017-08-19T03:24:40.647Z,6.55
2017-08-19T03:27:08.957Z,8.10
2017-08-19T03:29:37.229Z,6.07
2017-08-19T03:32:05.509Z,5.68
2017-08-19T03:34:33.785Z,5.95
2017-08-19T03:37:02.043Z,5.30
2017-08-19T03:39:30.347Z,5.30
2017-08-19T03:41:58.618Z,5.45
2017-08-19T03:44:26.893Z,6.28
2017-08-19T03:46:55.164Z,6.65
2017-08-19T03:49:23.428Z,6.18
2017-08-19T03:51:51.740Z,6.15
2017-08-19T03:54:20.771Z,5.87
2017-08-19T03:56:49.036Z,6.70
2017-08-19T03:59:17.328Z,6.30
2017-08-19T04:01:45.594Z,6.37
2017-08-19T04:04:13.915Z,8.95
2017-08-19T04:06:42.172Z,10.98
2017-08-19T04:09:10.448Z,7.95
2017-08-19T04:11:38.727Z,6.75
2017-08-19T04:14:06.987Z,7.15
2017-08-19T04:16:35.307Z,7.12
2017-08-19T04:19:03.587Z,7.00
2017-08-19T04:21:31.852Z,5.68
2017-08-19T04:24:00.136Z,6.82
2017-08-19T04:26:28.408Z,6.72
2017-08-19T04:28:57.480Z,7.53
2017-08-19T04:31:25.744Z,6.22
2017-08-19T04:33:54.021Z,8.55
2017-08-19T04:36:23.075Z,5.40
2017-08-19T04:38:51.343Z,7.05
2017-08-19T04:41:20.640Z,5.78
2017-08-19T04:43:49.688Z,8.75
2017-08-19T04:46:17.955Z,6.25
2017-08-19T04:48:46.240Z,6.20
2017-08-19T04:51:15.274Z,7.20
2017-08-19T04:53:43.575Z,7.50
2017-08-19T04:56:11.859Z,6.35
2017-08-19T04:58:40.883Z,7.95
2017-08-19T05:01:09.167Z,7.15
2017-08-19T05:03:37.431Z,8.07
2017-08-19T05:06:05.733Z,4.80
2017-08-19T05:08:33.995Z,8.10
2017-08-19T05:11:02.264Z,4.85
2017-08-19T05:13:30.546Z,7.22
2017-08-19T05:15:58.808Z,6.10
2017-08-19T05:18:27.128Z,5.43
2017-08-19T05:20:55.424Z,5.10
2017-08-19T05:23:23.688Z,4.97
2017-08-19T05:25:51.976Z,6.90
2017-08-19T05:28:20.239Z,4.53
2017-08-19T05:30:48.564Z,4.07
2017-08-19T05:33:16.836Z,3.50
2017-08-19T05:35:45.096Z,3.55
2017-08-19T05:38:13.390Z,2.45
2017-08-19T05:40:41.663Z,3.40
2017-08-19T05:43:10.735Z,6.93
2017-08-19T05:45:39.016Z,3.28
2017-08-19T05:48:08.060Z,2.00
2017-08-19T05:50:36.336Z,1.37
2017-08-19T05:53:04.596Z,2.78
2017-08-19T05:55:32.916Z,3.10
2017-08-19T05:58:01.183Z,2.15
2017-08-19T06:00:29.456Z,1.52
2017-08-19T06:02:57.741Z,2.17
2017-08-19T06:05:26.017Z,1.90
2017-08-19T06:07:54.477Z,2.33
2017-08-19T06:10:22.739Z,2.72
2017-08-19T06:12:51.779Z,1.58
2017-08-19T06:15:20.064Z,1.77
2017-08-19T06:17:48.345Z,2.35
2017-08-19T06:20:17.410Z,1.48
2017-08-19T06:22:45.686Z,2.30
2017-08-19T06:25:13.945Z,3.17
2017-08-19T06:27:43.008Z,1.20
2017-08-19T06:30:11.283Z,1.90
2017-08-19T06:32:40.354Z,2.17
2017-08-19T06:35:08.627Z,4.07
2017-08-19T06:37:37.680Z,1.30
2017-08-19T06:40:05.960Z,1.52
2017-08-19T06:42:34.233Z,1.62
2017-08-19T06:45:03.303Z,2.35
2017-08-19T06:47:31.571Z,2.35
2017-08-19T06:50:00.603Z,1.70
2017-08-19T06:52:29.319Z,4.07
2017-08-19T06:54:58.651Z,1.42
2017-08-19T06:57:26.971Z,1.45
2017-08-19T06:59:55.251Z,1.80
2017-08-19T07:02:23.526Z,1.83
2017-08-19T07:04:51.853Z,4.12
2017-08-19T07:07:20.113Z,1.55
2017-08-19T07:09:49.289Z,2.75
2017-08-19T07:12:17.565Z,1.30
2017-08-19T07:14:46.600Z,3.37
2017-08-19T07:17:14.888Z,1.48
2017-08-19T07:19:43.155Z,4.50
2017-08-19T07:22:11.463Z,1.55
2017-08-19T07:24:39.734Z,2.55
2017-08-19T07:27:07.987Z,1.70
2017-08-19T07:29:36.275Z,4.87
2017-08-19T07:32:04.540Z,2.58
2017-08-19T07:34:32.839Z,3.50
2017-08-19T07:37:01.869Z,2.97
2017-08-19T07:39:30.144Z,1.67
2017-08-19T07:41:58.434Z,3.80
2017-08-19T07:44:27.465Z,2.15
2017-08-19T07:46:55.775Z,2.50
2017-08-19T07:49:24.800Z,1.62
2017-08-19T07:51:53.072Z,2.25
2017-08-19T07:54:21.355Z,1.80
2017-08-19T07:56:49.623Z,2.72
2017-08-19T07:59:17.940Z,2.08
2017-08-19T08:01:46.199Z,1.60
2017-08-19T08:04:14.463Z,2.25
2017-08-19T08:06:42.757Z,3.10
2017-08-19T08:09:11.032Z,2.72
2017-08-19T08:11:39.323Z,1.55
2017-08-19T08:14:07.613Z,3.28
2017-08-19T08:16:35.879Z,1.62
2017-08-19T08:19:04.168Z,1.52
2017-08-19T08:21:32.440Z,2.12
2017-08-19T08:24:00.757Z,1.30
2017-08-19T08:26:29.028Z,1.52
2017-08-19T08:28:57.308Z,2.55
2017-08-19T08:31:25.593Z,1.17
2017-08-19T08:33:54.624Z,1.35
2017-08-19T08:36:23.035Z,1.67
2017-08-19T08:38:52.064Z,1.00
2017-08-19T08:41:20.323Z,1.40
2017-08-19T08:43:48.612Z,1.17
2017-08-19T08:46:16.875Z,1.60
2017-08-19T08:48:45.368Z,1.50
2017-08-19T08:51:14.398Z,1.05
2017-08-19T08:53:42.668Z,3.03
2017-08-19T08:56:10.955Z,1.35
2017-08-19T08:58:40.000Z,1.42
2017-08-19T09:01:08.299Z,1.30
2017-08-19T09:03:37.359Z,2.47
2017-08-19T09:06:05.628Z,2.17
2017-08-19T09:08:33.909Z,1.30
2017-08-19T09:11:02.951Z,1.23
2017-08-19T09:13:31.268Z,1.20
2017-08-19T09:15:59.548Z,4.22
2017-08-19T09:18:27.809Z,1.48
2017-08-19T09:20:56.096Z,1.42
2017-08-19T09:23:24.363Z,1.50
2017-08-19T09:25:52.680Z,1.10
2017-08-19T09:28:20.955Z,1.00
2017-08-19T09:30:49.223Z,1.70
2017-08-19T09:33:17.512Z,1.10
2017-08-19T09:35:45.788Z,1.37
2017-08-19T09:38:14.115Z,1.10
2017-08-19T09:40:42.380Z,2.15
2017-08-19T09:43:10.699Z,4.72
2017-08-19T09:45:39.745Z,1.30
2017-08-19T09:48:08.007Z,2.25
2017-08-19T09:50:36.327Z,3.10
2017-08-19T09:53:04.596Z,2.12
2017-08-19T09:55:32.868Z,1.62
2017-08-19T09:58:01.147Z,3.45
2017-08-19T10:00:29.407Z,1.10
2017-08-19T10:02:57.748Z,1.20
2017-08-19T10:05:26.020Z,1.58
2017-08-19T10:07:54.295Z,1.05
2017-08-19T10:10:34.452Z,1.35
2017-08-19T10:13:03.497Z,2.35
2017-08-19T10:15:31.821Z,2.92
2017-08-19T10:18:00.096Z,3.53
2017-08-19T10:20:28.368Z,0.98
2017-08-19T10:22:56.655Z,0.60
2017-08-19T10:25:24.931Z,2.90
2017-08-19T10:27:53.232Z,0.98
2017-08-19T10:30:21.499Z,5.35
2017-08-19T10:32:50.188Z,3.30
2017-08-19T10:35:18.471Z,1.75
2017-08-19T10:37:46.744Z,1.35
2017-08-19T10:40:15.049Z,1.60
2017-08-19T10:42:43.311Z,1.33
2017-08-19T10:45:11.579Z,2.33
2017-08-19T10:47:39.874Z,1.70
2017-08-19T10:52:42.755Z,3.65
2017-08-19T10:55:11.024Z,3.42
2017-08-19T10:57:39.297Z,1.98
2017-08-19T11:00:08.360Z,4.32
2017-08-19T11:02:36.632Z,2.40
2017-08-19T11:05:05.731Z,2.17
2017-08-19T11:07:34.004Z,1.50
2017-08-19T11:10:02.280Z,2.25
2017-08-19T11:12:30.572Z,5.00
2017-08-19T11:14:58.862Z,5.80
2017-08-19T11:17:27.944Z,6.78
2017-08-19T11:19:57.003Z,1.45
2017-08-19T11:22:25.964Z,6.10
2017-08-19T11:24:54.272Z,1.55
2017-08-19T11:27:23.296Z,3.12
2017-08-19T11:29:51.580Z,1.35
2017-08-19T11:32:19.851Z,2.40
2017-08-19T11:34:48.183Z,1.37
2017-08-19T11:37:16.453Z,3.75
2017-08-19T11:39:44.720Z,1.70
2017-08-19T11:42:13.003Z,1.20
2017-08-19T11:44:42.035Z,3.00
2017-08-19T11:47:10.364Z,4.12
2017-08-19T11:49:38.635Z,3.47
2017-08-19T11:52:08.076Z,0.90
2017-08-19T11:54:36.368Z,2.17
2017-08-19T11:57:05.407Z,1.67
2017-08-19T11:59:33.691Z,2.75
2017-08-19T12:02:02.732Z,1.17
2017-08-19T12:04:31.007Z,1.20
2017-08-19T12:06:59.353Z,2.20
2017-08-19T12:09:27.625Z,1.90
2017-08-19T12:11:55.975Z,1.60
2017-08-19T12:14:24.260Z,2.55
2017-08-19T12:16:52.527Z,2.47
2017-08-19T12:19:20.807Z,2.67
2017-08-19T12:21:49.839Z,2.28
2017-08-19T12:24:18.153Z,1.75
2017-08-19T12:26:47.198Z,2.05
2017-08-19T12:31:52.981Z,3.72
2017-08-19T12:34:22.016Z,1.20
2017-08-19T12:39:27.783Z,1.42
2017-08-19T12:41:56.843Z,1.65
2017-08-19T12:44:25.111Z,1.30
2017-08-19T12:46:53.395Z,1.35
2017-08-19T12:49:21.709Z,2.85
2017-08-19T12:51:49.971Z,1.30
2017-08-19T12:54:18.255Z,1.30
2017-08-19T12:56:46.528Z,1.02
2017-08-19T12:59:15.589Z,3.30
2017-08-19T13:01:43.864Z,2.28
2017-08-19T13:04:12.407Z,2.22
2017-08-19T13:06:40.680Z,1.27
2017-08-19T13:09:08.995Z,1.02
2017-08-19T13:11:37.278Z,1.33
2017-08-19T13:14:05.540Z,1.90
2017-08-19T13:16:33.832Z,2.58
2017-08-19T13:19:02.099Z,2.45
2017-08-19T13:21:31.155Z,3.08
2017-08-19T13:23:59.435Z,1.60
2017-08-19T13:26:27.750Z,1.67
2017-08-19T13:28:56.027Z,1.55
2017-08-19T13:31:24.328Z,1.50
2017-08-19T13:33:53.383Z,1.23
2017-08-19T13:36:21.665Z,1.77
2017-08-19T13:38:49.983Z,2.25
2017-08-19T13:43:52.815Z,4.10
2017-08-19T13:46:21.096Z,1.45
2017-08-19T13:48:49.368Z,1.10
2017-08-19T13:51:17.664Z,2.70
2017-08-19T13:53:46.628Z,2.03
2017-08-19T13:56:14.952Z,1.37
2017-08-19T13:58:43.327Z,2.37
2017-08-19T14:01:11.576Z,2.93
2017-08-19T14:03:39.877Z,3.37
2017-08-19T14:06:08.155Z,1.75
2017-08-19T14:08:36.472Z,1.80
2017-08-19T14:11:04.747Z,2.05
2017-08-19T14:13:33.020Z,1.27
2017-08-19T14:16:01.633Z,2.35
2017-08-19T14:18:30.667Z,2.55
2017-08-19T14:20:58.988Z,1.67
2017-08-19T14:23:27.269Z,3.37
2017-08-19T14:25:55.548Z,1.55
2017-08-19T14:28:23.844Z,1.62
2017-08-19T14:30:52.896Z,1.47
2017-08-19T14:33:21.209Z,1.08
2017-08-19T14:35:49.479Z,1.83
2017-08-19T14:38:17.748Z,1.80
2017-08-19T14:40:46.039Z,1.03
2017-08-19T14:43:14.377Z,2.77
2017-08-19T14:45:42.695Z,4.67
2017-08-19T14:48:10.982Z,1.87
2017-08-19T14:50:39.258Z,1.12
2017-08-19T14:53:07.548Z,3.42
2017-08-19T14:55:35.823Z,2.80
2017-08-19T14:58:04.225Z,0.70
2017-08-19T15:00:33.251Z,1.20
2017-08-19T15:03:01.533Z,2.12
2017-08-19T15:05:29.835Z,2.73
2017-08-19T15:07:58.124Z,1.40
2017-08-19T15:10:26.444Z,0.75
2017-08-19T15:12:55.482Z,1.47
2017-08-19T15:15:23.752Z,1.35
2017-08-19T15:17:52.047Z,1.60
2017-08-19T15:20:21.287Z,2.33
2017-08-19T15:22:50.396Z,1.45
2017-08-19T15:25:18.896Z,3.95
2017-08-19T15:27:47.175Z,3.05
2017-08-19T15:30:15.519Z,1.10
2017-08-19T15:32:43.792Z,1.98
2017-08-19T15:35:12.091Z,1.52
2017-08-19T15:37:40.368Z,1.30
2017-08-19T15:40:09.410Z,1.00
2017-08-19T15:42:37.720Z,2.35
2017-08-19T15:45:06.808Z,1.23
2017-08-19T15:47:35.904Z,1.48
2017-08-19T15:50:04.186Z,2.80
2017-08-19T15:52:32.455Z,1.87
2017-08-19T15:55:01.448Z,2.60
2017-08-19T15:57:29.726Z,2.65
2017-08-19T15:59:58.032Z,2.30
2017-08-19T16:02:26.328Z,1.20
2017-08-19T16:04:55.408Z,3.50
2017-08-19T16:07:23.709Z,1.35
2017-08-19T16:09:51.984Z,1.30
2017-08-19T16:12:21.084Z,1.25
2017-08-19T16:14:49.360Z,3.17
2017-08-19T16:17:17.907Z,3.85
2017-08-19T16:19:46.204Z,3.05
2017-08-19T16:22:14.495Z,3.62
2017-08-19T16:24:42.811Z,3.22
2017-08-19T16:27:11.084Z,1.42
2017-08-19T16:29:39.356Z,1.85
2017-08-19T16:32:07.643Z,3.30
2017-08-19T16:34:36.685Z,2.45
2017-08-19T16:37:05.039Z,1.25
2017-08-19T16:39:33.312Z,1.02
2017-08-19T16:42:01.583Z,1.95
2017-08-19T16:44:29.891Z,1.70
2017-08-19T16:46:58.313Z,1.00
2017-08-19T16:49:26.616Z,1.95
2017-08-19T16:51:54.896Z,1.42
2017-08-19T16:54:23.168Z,2.70
2017-08-19T16:56:51.452Z,2.17
2017-08-19T16:59:20.204Z,1.75
2017-08-19T17:01:48.517Z,1.98
2017-08-19T17:04:17.556Z,1.67
2017-08-19T17:06:45.821Z,2.28
2017-08-19T17:09:14.099Z,5.00
2017-08-19T17:11:42.371Z,1.70
2017-08-19T17:14:10.679Z,3.53
2017-08-19T17:16:38.947Z,1.25
2017-08-19T17:19:07.215Z,3.40
2017-08-19T17:21:35.500Z,1.75
2017-08-19T17:24:03.776Z,1.50
2017-08-19T17:26:32.087Z,2.47
2017-08-19T17:29:00.359Z,5.20
2017-08-19T17:31:28.640Z,1.70
2017-08-19T17:33:56.945Z,1.25
2017-08-19T17:36:25.975Z,1.65
2017-08-19T17:38:54.296Z,1.83
2017-08-19T17:41:22.564Z,1.08
2017-08-19T17:43:50.839Z,3.87
2017-08-19T17:46:19.132Z,1.40
2017-08-19T17:48:47.526Z,1.02
2017-08-19T17:51:16.621Z,1.35
2017-08-19T17:53:45.661Z,1.10
2017-08-19T17:56:13.931Z,1.25
2017-08-19T17:58:42.220Z,1.62
2017-08-19T18:01:10.504Z,1.77
2017-08-19T18:03:38.828Z,1.00
2017-08-19T18:06:07.867Z,1.50
2017-08-19T18:08:36.143Z,1.73
2017-08-19T18:11:04.442Z,1.48
2017-08-19T18:13:33.482Z,1.67
2017-08-19T18:16:01.796Z,1.30
2017-08-19T18:18:30.055Z,2.55
2017-08-19T18:20:58.327Z,1.75
2017-08-19T18:23:26.620Z,1.35
2017-08-19T18:25:54.905Z,2.20
2017-08-19T18:28:23.579Z,1.75
2017-08-19T18:30:51.856Z,2.22
2017-08-19T18:33:20.897Z,2.12
2017-08-19T18:35:49.315Z,1.98
2017-08-19T18:38:17.615Z,1.35
2017-08-19T18:40:45.896Z,2.37
2017-08-19T18:43:14.176Z,1.52
2017-08-19T18:45:42.437Z,1.55
2017-08-19T18:48:11.488Z,3.33
2017-08-19T18:50:39.765Z,1.67
2017-08-19T18:53:08.079Z,1.48
2017-08-19T18:55:36.347Z,4.43
2017-08-19T18:58:04.623Z,3.20
2017-08-19T19:00:32.908Z,2.33
2017-08-19T19:03:01.175Z,3.00
2017-08-19T19:05:29.649Z,2.25
2017-08-19T19:07:58.684Z,3.08
2017-08-19T19:10:26.952Z,2.80
2017-08-19T19:12:55.235Z,3.67
2017-08-19T19:15:23.503Z,1.75
2017-08-19T19:17:51.818Z,1.40
2017-08-19T19:20:20.093Z,2.28
2017-08-19T19:22:48.364Z,3.80
2017-08-19T19:25:16.651Z,2.65
2017-08-19T19:27:44.921Z,3.95
2017-08-19T19:30:14.101Z,2.25
2017-08-19T19:32:43.143Z,1.90
2017-08-19T19:35:11.416Z,2.75
2017-08-19T19:37:39.705Z,4.37
2017-08-19T19:40:08.727Z,5.10
2017-08-19T19:42:37.033Z,6.40
2017-08-19T19:45:05.301Z,2.17
2017-08-19T19:47:33.560Z,2.40
2017-08-19T19:50:02.627Z,1.75
2017-08-19T19:52:30.900Z,3.70
2017-08-19T19:54:59.207Z,2.35
2017-08-19T19:57:27.480Z,3.37
2017-08-19T19:59:55.752Z,4.05
2017-08-19T20:02:24.040Z,2.90
2017-08-19T20:04:53.305Z,3.55
2017-08-19T20:07:21.636Z,3.90
2017-08-19T20:09:49.911Z,4.75
2017-08-19T20:12:18.188Z,2.42
2017-08-19T20:14:46.475Z,3.95
2017-08-19T20:17:14.752Z,2.80
2017-08-19T20:19:43.831Z,4.30
2017-08-19T20:22:12.871Z,2.47
2017-08-19T20:24:41.143Z,4.15
2017-08-19T20:27:09.432Z,2.90
2017-08-19T20:29:38.459Z,3.75
2017-08-19T20:32:06.859Z,4.00
2017-08-19T20:34:35.128Z,7.85
2017-08-19T20:37:04.164Z,5.62
2017-08-19T20:39:32.448Z,4.87
2017-08-19T20:42:00.715Z,3.70
2017-08-19T20:44:29.020Z,4.40
2017-08-19T20:46:57.299Z,5.25
2017-08-19T20:49:25.572Z,3.00
2017-08-19T20:51:53.855Z,3.25
2017-08-19T20:54:22.124Z,2.35
2017-08-19T20:56:50.599Z,3.17
2017-08-19T20:59:19.639Z,2.25
2017-08-19T21:01:47.905Z,6.87
2017-08-19T21:04:16.200Z,4.28
2017-08-19T21:06:44.472Z,2.50
2017-08-19T21:09:13.531Z,2.87
2017-08-19T21:11:41.796Z,2.60
2017-08-19T21:14:11.025Z,3.58
2017-08-19T21:16:39.311Z,3.03
2017-08-19T21:19:07.579Z,3.83
2017-08-19T21:21:36.094Z,6.82
2017-08-19T21:24:04.336Z,4.30
2017-08-19T21:26:33.372Z,3.28
2017-08-19T21:29:01.660Z,3.40
2017-08-19T21:31:29.935Z,4.35
2017-08-19T21:33:58.227Z,5.03
2017-08-19T21:36:26.676Z,4.22
2017-08-19T21:38:56.728Z,6.70
2017-08-19T21:41:25.015Z,3.53
2017-08-19T21:43:53.272Z,4.40
2017-08-19T21:46:21.571Z,5.32
2017-08-19T21:48:49.855Z,2.97
2017-08-19T21:51:18.117Z,3.05
2017-08-19T21:53:46.408Z,2.60
2017-08-19T21:56:14.668Z,6.47
2017-08-19T21:58:42.984Z,4.57
2017-08-19T22:01:11.263Z,3.08
2017-08-19T22:03:39.540Z,2.62
2017-08-19T22:06:07.836Z,3.40
2017-08-19T22:08:36.116Z,2.80
2017-08-19T22:11:05.195Z,4.03
2017-08-19T22:13:34.228Z,3.00
2017-08-19T22:16:02.503Z,7.75
2017-08-19T22:18:30.788Z,6.22
2017-08-19T22:20:59.820Z,3.20
2017-08-19T22:23:28.124Z,3.80
2017-08-19T22:25:57.175Z,3.78
2017-08-19T22:28:25.436Z,4.40
2017-08-19T22:30:53.715Z,3.35
2017-08-19T22:33:21.987Z,2.45
2017-08-19T22:35:50.296Z,3.20
2017-08-19T22:38:18.575Z,2.50
2017-08-19T22:40:46.848Z,3.78
2017-08-19T22:43:15.124Z,2.92
2017-08-19T22:45:43.400Z,3.62
2017-08-19T22:48:12.480Z,2.62
2017-08-19T22:50:41.511Z,3.45
2017-08-19T22:53:09.779Z,2.78
2017-08-19T22:55:38.064Z,5.30
2017-08-19T22:58:06.336Z,3.90
2017-08-19T23:00:35.435Z,3.70
2017-08-19T23:03:03.703Z,3.80
2017-08-19T23:05:32.020Z,4.37
2017-08-19T23:08:00.305Z,2.35
2017-08-19T23:10:29.335Z,2.75
2017-08-19T23:12:57.644Z,2.92
2017-08-19T23:15:26.686Z,4.30
2017-08-19T23:17:54.944Z,2.45
2017-08-19T23:20:23.237Z,2.25
2017-08-19T23:22:51.499Z,3.00
2017-08-19T23:25:19.803Z,4.75
2017-08-19T23:27:48.071Z,3.97
2017-08-19T23:30:16.356Z,4.55
2017-08-19T23:32:45.743Z,4.82
2017-08-19T23:35:14.019Z,3.80
2017-08-19T23:37:42.315Z,2.53
2017-08-19T23:40:11.344Z,4.53
2017-08-19T23:42:39.617Z,3.55
2017-08-19T23:45:07.887Z,2.58
2017-08-19T23:47:36.164Z,3.62
2017-08-19T23:50:05.252Z,5.75
2017-08-19T23:52:34.597Z,3.42
2017-08-19T23:55:02.862Z,4.62
2017-08-19T23:57:31.153Z,2.92
